createdAt,value
2022-09-27T00:00:26.777Z,99153.09
2022-09-27T00:02:53.427Z,99155.81
2022-09-27T00:05:20.152Z,99153.63
2022-09-27T00:07:48.221Z,99150.53
2022-09-27T00:10:15.228Z,99155.13
2022-09-27T00:12:41.810Z,99156.03
2022-09-27T00:15:10.087Z,99129.31
2022-09-27T00:17:36.786Z,99135.97
2022-09-27T00:20:05.700Z,99129.47
2022-09-27T00:22:32.337Z,99112.88
2022-09-27T00:25:00.286Z,99111.34
2022-09-27T00:27:27.848Z,99104.34
2022-09-27T00:29:54.456Z,99095.09
2022-09-27T00:32:21.037Z,99090.97
2022-09-27T00:34:47.661Z,99089.06
2022-09-27T00:37:14.264Z,99104.34
2022-09-27T00:39:40.816Z,99106.84
2022-09-27T00:42:11.701Z,99113.94
2022-09-27T00:45:05.867Z,99115.97
2022-09-27T00:47:40.738Z,99118.22
2022-09-27T00:50:15.375Z,99090.66
2022-09-27T00:52:48.680Z,99102.19
2022-09-27T00:55:19.311Z,99125.28
2022-09-27T00:57:48.424Z,99123.88
2022-09-27T01:00:15.623Z,99143.13
2022-09-27T01:02:45.762Z,99139.25
2022-09-27T01:05:15.001Z,99135.13
2022-09-27T01:07:41.647Z,99131.66
2022-09-27T01:10:09.047Z,99133.25
2022-09-27T01:12:48.114Z,99126.69
2022-09-27T01:15:25.941Z,99113.28
2022-09-27T01:18:07.386Z,99114.75
2022-09-27T01:21:07.139Z,99113.88
2022-09-27T01:24:09.326Z,99098.13
2022-09-27T01:26:56.784Z,99116.31
2022-09-27T01:29:32.819Z,99119.44
2022-09-27T01:32:05.874Z,99122.56
2022-09-27T01:34:40.481Z,99126.34
2022-09-27T01:37:12.747Z,99141.88
2022-09-27T01:39:50.062Z,99108.13
2022-09-27T01:42:23.011Z,99121.63
2022-09-27T01:44:55.463Z,99115.91
2022-09-27T01:47:28.943Z,99103.44
2022-09-27T01:50:01.590Z,99096.19
2022-09-27T01:52:33.313Z,99110.63
2022-09-27T01:55:03.160Z,99116.94
2022-09-27T01:57:35.257Z,99123.84
2022-09-27T02:00:05.647Z,99132.63
2022-09-27T02:02:39.150Z,99132.13
2022-09-27T02:05:09.491Z,99125.38
2022-09-27T02:07:43.213Z,99121.47
2022-09-27T02:10:13.205Z,99120.03
2022-09-27T02:12:47.104Z,99106.19
2022-09-27T02:15:14.674Z,99102.69
2022-09-27T02:17:47.881Z,99096.44
2022-09-27T02:20:24.745Z,99079.81
2022-09-27T02:22:57.383Z,99063.69
2022-09-27T02:25:28.606Z,99048.78
2022-09-27T02:28:00.883Z,99016.97
2022-09-27T02:30:27.563Z,98995.94
2022-09-27T02:32:55.593Z,98986.75
2022-09-27T02:35:26.631Z,98963.84
2022-09-27T02:37:53.454Z,98950.84
2022-09-27T02:40:20.143Z,98975.44
2022-09-27T02:42:46.954Z,98979.13
2022-09-27T02:45:15.877Z,98998.50
2022-09-27T02:48:09.489Z,98991.72
2022-09-27T02:50:57.029Z,98985.72
2022-09-27T02:53:39.089Z,98973.25
2022-09-27T02:56:13.936Z,98963.47
2022-09-27T02:58:53.460Z,98961.22
2022-09-27T03:01:28.987Z,98963.78
2022-09-27T03:04:03.909Z,98961.25
2022-09-27T03:06:32.098Z,98958.53
2022-09-27T03:08:58.691Z,98951.50
2022-09-27T03:11:25.505Z,98946.03
2022-09-27T03:14:08.013Z,98947.41
2022-09-27T03:16:35.755Z,98948.94
2022-09-27T03:19:03.735Z,98940.69
2022-09-27T03:21:30.287Z,98936.75
2022-09-27T03:23:57.195Z,98939.81
2022-09-27T03:26:23.774Z,98931.25
2022-09-27T03:28:50.334Z,98924.25
2022-09-27T03:31:17.470Z,98906.19
2022-09-27T03:33:44.133Z,98912.44
2022-09-27T03:36:12.081Z,98918.41
2022-09-27T03:38:38.675Z,98919.13
2022-09-27T03:41:05.425Z,98922.41
2022-09-27T03:43:31.975Z,98925.34
2022-09-27T03:45:58.587Z,98922.22
2022-09-27T03:48:28.123Z,98914.19
2022-09-27T03:50:54.922Z,98892.63
2022-09-27T03:53:22.912Z,98888.53
2022-09-27T03:55:49.472Z,98893.50
2022-09-27T03:58:16.462Z,98888.06
2022-09-27T04:00:43.018Z,98912.50
2022-09-27T04:03:09.812Z,98899.81
2022-09-27T04:05:36.403Z,98876.22
2022-09-27T04:08:02.996Z,98870.56
2022-09-27T04:10:30.976Z,98886.78
2022-09-27T04:12:57.545Z,98886.81
2022-09-27T04:15:24.113Z,98854.22
2022-09-27T04:17:51.160Z,98879.00
2022-09-27T04:20:17.732Z,98879.66
2022-09-27T04:22:44.359Z,98884.13
2022-09-27T04:25:11.496Z,98882.78
2022-09-27T04:27:43.932Z,98874.53
2022-09-27T04:30:11.572Z,98877.63
2022-09-27T04:32:41.324Z,98869.25
2022-09-27T04:35:08.919Z,98849.94
2022-09-27T04:37:35.537Z,98860.72
2022-09-27T04:40:02.522Z,98873.19
2022-09-27T04:42:29.352Z,98873.50
2022-09-27T04:44:57.292Z,98891.56
2022-09-27T04:47:23.834Z,98913.34
2022-09-27T04:49:50.402Z,98914.94
2022-09-27T04:52:17.079Z,98905.25
2022-09-27T04:54:43.681Z,98906.56
2022-09-27T04:57:10.294Z,98908.84
2022-09-27T04:59:36.869Z,98898.81
2022-09-27T05:02:04.884Z,98906.34
2022-09-27T05:04:31.469Z,98875.41
2022-09-27T05:06:58.165Z,98850.78
2022-09-27T05:09:24.759Z,98851.97
2022-09-27T05:11:51.283Z,98846.53
2022-09-27T05:14:17.960Z,98829.25
2022-09-27T05:16:44.593Z,98811.50
2022-09-27T05:19:12.572Z,98816.09
2022-09-27T05:21:41.241Z,98830.28
2022-09-27T05:24:07.780Z,98833.88
2022-09-27T05:26:34.310Z,98834.41
2022-09-27T05:29:01.036Z,98831.66
2022-09-27T05:31:27.795Z,98845.84
2022-09-27T05:33:54.412Z,98825.66
2022-09-27T05:36:22.343Z,98835.56
2022-09-27T05:38:49.169Z,98827.72
2022-09-27T05:41:15.858Z,98819.19
2022-09-27T05:43:42.451Z,98835.75
2022-09-27T05:46:09.082Z,98836.28
2022-09-27T05:48:35.740Z,98843.97
2022-09-27T05:51:02.466Z,98840.72
2022-09-27T05:53:30.570Z,98838.47
2022-09-27T05:56:01.354Z,98830.44
2022-09-27T05:58:28.019Z,98831.47
2022-09-27T06:00:54.586Z,98843.06
2022-09-27T06:03:21.258Z,98844.47
2022-09-27T06:05:51.205Z,98848.22
2022-09-27T06:08:18.163Z,98843.72
2022-09-27T06:10:48.196Z,98841.47
2022-09-27T06:13:16.176Z,98821.59
2022-09-27T06:15:44.691Z,98819.28
2022-09-27T06:18:13.158Z,98820.88
2022-09-27T06:20:40.476Z,98820.72
2022-09-27T06:23:08.727Z,98820.91
2022-09-27T06:25:35.699Z,98815.72
2022-09-27T06:28:04.565Z,98817.16
2022-09-27T06:30:31.704Z,98817.97
2022-09-27T06:32:59.591Z,98815.13
2022-09-27T06:35:29.646Z,98815.84
2022-09-27T06:37:56.365Z,98829.66
2022-09-27T06:40:23.808Z,98828.63
2022-09-27T06:42:50.404Z,98818.78
2022-09-27T06:45:18.677Z,98828.63
2022-09-27T06:47:45.373Z,98830.13
2022-09-27T06:50:12.174Z,98821.53
2022-09-27T06:52:46.369Z,98825.06
2022-09-27T06:55:13.152Z,98824.19
2022-09-27T06:57:39.877Z,98818.28
2022-09-27T07:00:07.139Z,98820.78
2022-09-27T07:02:35.095Z,98810.94
2022-09-27T07:05:01.992Z,98811.72
2022-09-27T07:07:30.784Z,98806.47
2022-09-27T07:09:57.396Z,98805.47
2022-09-27T07:12:24.096Z,98808.31
2022-09-27T07:14:51.012Z,98792.97
2022-09-27T07:17:17.583Z,98807.41
2022-09-27T07:19:46.248Z,98816.19
2022-09-27T07:22:13.002Z,98823.13
2022-09-27T07:24:39.689Z,98821.22
2022-09-27T07:27:06.323Z,98829.38
2022-09-27T07:29:33.100Z,98831.28
2022-09-27T07:31:59.747Z,98824.09
2022-09-27T07:34:26.366Z,98823.00
2022-09-27T07:36:59.037Z,98824.63
2022-09-27T07:39:25.687Z,98830.50
2022-09-27T07:41:52.417Z,98825.50
2022-09-27T07:44:19.093Z,98820.00
2022-09-27T07:46:45.836Z,98824.69
2022-09-27T07:49:12.437Z,98812.81
2022-09-27T07:51:39.139Z,98802.47
2022-09-27T07:54:08.844Z,98812.72
2022-09-27T07:56:35.798Z,98820.13
2022-09-27T07:59:02.478Z,98815.84
2022-09-27T08:01:29.404Z,98830.41
2022-09-27T08:03:56.123Z,98826.28
2022-09-27T08:06:22.732Z,98819.06
2022-09-27T08:08:49.374Z,98810.06
2022-09-27T08:11:18.273Z,98801.44
2022-09-27T08:13:46.129Z,98804.41
2022-09-27T08:16:12.837Z,98790.19
2022-09-27T08:18:39.707Z,98795.75
2022-09-27T08:21:06.459Z,98805.91
2022-09-27T08:23:33.236Z,98791.03
2022-09-27T08:26:00.116Z,98802.31
2022-09-27T08:28:28.460Z,98802.41
2022-09-27T08:30:57.643Z,98806.44
2022-09-27T08:33:31.309Z,98805.69
2022-09-27T08:35:59.342Z,98769.94
2022-09-27T08:38:28.219Z,98811.97
2022-09-27T08:40:57.796Z,98799.00
2022-09-27T08:43:36.509Z,98797.84
2022-09-27T08:46:23.249Z,98797.13
2022-09-27T08:48:58.967Z,98782.91
2022-09-27T08:51:31.746Z,98791.69
2022-09-27T08:54:03.546Z,98795.50
2022-09-27T08:56:31.582Z,98787.88
2022-09-27T08:59:06.223Z,98776.75
2022-09-27T09:01:35.563Z,98764.06
2022-09-27T09:04:03.948Z,98758.47
2022-09-27T09:06:40.076Z,98762.34
2022-09-27T09:09:19.879Z,98770.38
2022-09-27T09:11:56.079Z,98753.69
2022-09-27T09:14:46.986Z,98777.00
2022-09-27T09:17:24.885Z,98762.06
2022-09-27T09:20:03.707Z,98771.06
2022-09-27T09:22:43.253Z,98772.66
2022-09-27T09:25:29.147Z,98754.47
2022-09-27T09:28:10.601Z,98773.53
2022-09-27T09:30:49.572Z,98781.66
2022-09-27T09:33:25.560Z,98760.03
2022-09-27T09:35:57.134Z,98769.38
2022-09-27T09:38:33.370Z,98765.16
2022-09-27T09:41:08.157Z,98718.34
2022-09-27T09:43:42.890Z,98739.06
2022-09-27T09:46:18.131Z,98764.38
2022-09-27T09:48:55.175Z,98737.53
2022-09-27T09:51:31.083Z,98709.69
2022-09-27T09:54:02.951Z,98741.81
2022-09-27T09:56:33.287Z,98730.44
2022-09-27T09:59:05.381Z,98718.47
2022-09-27T10:01:40.867Z,98693.06
2022-09-27T10:04:09.533Z,98705.75
2022-09-27T10:06:40.575Z,98746.13
2022-09-27T10:09:11.947Z,98745.13
2022-09-27T10:14:26.877Z,98726.94
2022-09-27T10:16:59.533Z,98714.56
2022-09-27T10:19:29.320Z,98706.66
2022-09-27T10:22:01.664Z,98713.34
2022-09-27T10:24:28.584Z,98718.47
2022-09-27T10:26:59.656Z,98703.34
2022-09-27T10:29:34.889Z,98716.13
2022-09-27T10:32:22.069Z,98710.00
2022-09-27T10:34:48.777Z,98699.91
2022-09-27T10:37:17.921Z,98694.31
2022-09-27T10:39:45.797Z,98693.97
2022-09-27T10:42:30.830Z,98705.66
2022-09-27T10:44:57.713Z,98704.69
2022-09-27T10:47:28.358Z,98708.28
2022-09-27T10:50:04.994Z,98710.88
2022-09-27T10:52:31.840Z,98703.00
2022-09-27T10:55:01.598Z,98687.16
2022-09-27T10:57:30.090Z,98711.06
2022-09-27T11:02:29.360Z,98704.03
2022-09-27T11:05:14.725Z,98701.72
2022-09-27T11:07:49.544Z,98690.09
2022-09-27T11:10:25.733Z,98683.81
2022-09-27T11:13:11.917Z,98663.13
2022-09-27T11:15:51.986Z,98657.31
2022-09-27T11:18:30.423Z,98662.28
2022-09-27T11:21:06.591Z,98662.38
2022-09-27T11:24:04.180Z,98682.50
2022-09-27T11:26:46.698Z,98618.25
2022-09-27T11:29:25.289Z,98671.69
2022-09-27T11:32:07.732Z,98658.72
2022-09-27T11:34:56.103Z,98649.97
2022-09-27T11:37:31.429Z,98652.72
2022-09-27T11:40:11.654Z,98646.09
2022-09-27T11:43:03.156Z,98651.88
2022-09-27T11:46:14.253Z,98650.56
2022-09-27T11:48:50.798Z,98650.72
2022-09-27T11:51:39.378Z,98653.28
2022-09-27T11:54:30.183Z,98644.75
2022-09-27T11:57:06.377Z,98638.66
2022-09-27T11:59:50.751Z,98639.25
2022-09-27T12:02:37.310Z,98636.31
2022-09-27T12:05:28.191Z,98627.28
2022-09-27T12:08:09.065Z,98624.56
2022-09-27T12:10:38.496Z,98632.56
2022-09-27T12:13:06.067Z,98633.44
2022-09-27T12:15:42.701Z,98631.69
2022-09-27T12:18:16.906Z,98635.31
2022-09-27T12:20:48.246Z,98627.31
2022-09-27T12:23:22.191Z,98618.38
2022-09-27T12:25:51.102Z,98598.19
2022-09-27T12:28:28.381Z,98607.28
2022-09-27T12:31:24.434Z,98591.09
2022-09-27T12:33:53.781Z,98589.19
2022-09-27T12:36:28.150Z,98592.25
2022-09-27T12:39:04.279Z,98589.38
2022-09-27T12:41:42.453Z,98588.25
2022-09-27T12:44:10.279Z,98596.47
2022-09-27T12:46:50.738Z,98589.09
2022-09-27T12:49:26.195Z,98576.03
2022-09-27T12:52:04.843Z,98594.88
2022-09-27T12:54:51.607Z,98611.28
2022-09-27T12:57:30.189Z,98613.31
2022-09-27T13:00:08.857Z,98612.31
2022-09-27T13:03:14.705Z,98637.50
2022-09-27T13:06:12.071Z,98672.88
2022-09-27T13:09:20.222Z,98674.91
2022-09-27T13:11:57.119Z,98700.78
2022-09-27T13:14:26.480Z,98690.09
2022-09-27T13:16:52.898Z,98684.31
2022-09-27T13:19:39.160Z,98687.25
2022-09-27T13:22:07.822Z,98697.00
2022-09-27T13:24:46.529Z,98693.22
2022-09-27T13:27:37.297Z,98702.13
2022-09-27T13:30:46.088Z,98678.34
2022-09-27T13:33:43.953Z,98690.34
2022-09-27T13:36:30.104Z,98727.56
2022-09-27T13:39:05.415Z,98713.78
2022-09-27T13:41:54.070Z,98723.00
2022-09-27T13:44:31.660Z,98742.22
2022-09-27T13:47:01.660Z,98697.63
2022-09-27T13:49:33.370Z,98705.31
2022-09-27T13:52:03.823Z,98706.91
2022-09-27T13:54:40.490Z,98696.28
2022-09-27T13:57:46.105Z,98752.00
2022-09-27T14:00:19.479Z,98794.19
2022-09-27T14:03:04.266Z,98764.50
2022-09-27T14:05:35.630Z,98753.69
2022-09-27T14:08:04.522Z,98750.75
2022-09-27T14:10:32.076Z,98732.06
2022-09-27T14:13:03.174Z,98719.31
2022-09-27T14:15:32.160Z,98700.16
2022-09-27T14:17:59.281Z,98696.63
2022-09-27T14:20:35.180Z,98716.44
2022-09-27T14:23:03.143Z,98736.63
2022-09-27T14:25:33.982Z,98739.28
2022-09-27T14:28:02.743Z,98751.34
2022-09-27T14:30:31.292Z,98719.69
2022-09-27T14:32:57.994Z,98755.13
2022-09-27T14:35:25.998Z,98766.03
2022-09-27T14:37:54.054Z,98777.81
2022-09-27T14:40:28.765Z,98815.13
2022-09-27T14:42:59.403Z,98833.19
2022-09-27T14:45:30.616Z,98833.44
2022-09-27T14:47:58.514Z,98845.84
2022-09-27T14:50:26.639Z,98829.19
2022-09-27T14:52:53.252Z,98825.00
2022-09-27T14:55:21.974Z,98830.03
2022-09-27T14:57:52.070Z,98830.06
2022-09-27T15:00:21.484Z,98835.44
2022-09-27T15:02:48.609Z,98815.06
2022-09-27T15:05:18.805Z,98854.06
2022-09-27T15:07:48.121Z,98885.78
2022-09-27T15:10:17.081Z,98888.47
2022-09-27T15:12:45.597Z,98880.09
2022-09-27T15:15:15.299Z,98875.78
2022-09-27T15:17:42.646Z,98870.97
2022-09-27T15:20:22.999Z,98889.91
2022-09-27T15:22:49.623Z,98903.34
2022-09-27T15:25:20.408Z,98903.94
2022-09-27T15:27:52.905Z,98893.50
2022-09-27T15:30:27.770Z,98888.53
2022-09-27T15:32:56.567Z,98891.47
2022-09-27T15:35:27.387Z,98882.34
2022-09-27T15:38:11.844Z,98871.94
2022-09-27T15:41:07.797Z,98905.34
2022-09-27T15:43:36.959Z,98920.56
2022-09-27T15:46:05.497Z,98916.09
2022-09-27T15:48:33.156Z,98903.94
2022-09-27T15:51:01.657Z,98902.88
2022-09-27T15:53:44.072Z,98893.38
2022-09-27T15:56:13.948Z,98898.19
2022-09-27T15:58:41.079Z,98891.34
2022-09-27T16:01:07.682Z,98905.41
2022-09-27T16:03:34.811Z,98918.25
2022-09-27T16:06:04.110Z,98923.25
2022-09-27T16:08:30.836Z,98933.66
2022-09-27T16:10:59.021Z,98945.13
2022-09-27T16:13:32.403Z,98942.69
2022-09-27T16:15:59.682Z,98949.41
2022-09-27T16:18:30.280Z,98923.94
2022-09-27T16:20:57.735Z,98927.66
2022-09-27T16:23:25.810Z,98945.41
2022-09-27T16:25:52.603Z,98946.53
2022-09-27T16:28:19.298Z,98959.03
2022-09-27T16:30:45.910Z,98976.50
2022-09-27T16:33:12.461Z,98978.09
2022-09-27T16:35:39.606Z,98983.63
2022-09-27T16:38:06.208Z,98961.53
2022-09-27T16:40:34.219Z,98965.97
2022-09-27T16:43:00.826Z,98987.75
2022-09-27T16:45:27.405Z,98977.00
2022-09-27T16:47:54.024Z,98983.88
2022-09-27T16:50:20.566Z,98971.38
2022-09-27T16:52:47.298Z,98995.47
2022-09-27T16:55:14.483Z,99005.28
2022-09-27T16:57:42.437Z,98998.97
2022-09-27T17:00:10.437Z,99003.84
2022-09-27T17:02:37.000Z,99013.81
2022-09-27T17:05:04.438Z,99000.50
2022-09-27T17:07:31.160Z,99001.16
2022-09-27T17:09:57.775Z,99017.47
2022-09-27T17:12:24.409Z,99024.94
2022-09-27T17:14:52.421Z,99020.81
2022-09-27T17:17:19.014Z,99031.84
2022-09-27T17:19:45.666Z,99029.88
2022-09-27T17:22:12.284Z,99045.34
2022-09-27T17:24:38.841Z,99046.06
2022-09-27T17:27:05.438Z,99069.38
2022-09-27T17:29:31.998Z,99082.72
2022-09-27T17:32:00.197Z,99082.47
2022-09-27T17:34:27.012Z,99097.09
2022-09-27T17:36:53.706Z,99106.63
2022-09-27T17:39:21.334Z,99105.13
2022-09-27T17:41:49.194Z,99097.84
2022-09-27T17:44:17.587Z,99085.66
2022-09-27T17:46:45.682Z,99108.44
2022-09-27T17:49:14.136Z,99113.09
2022-09-27T17:51:42.070Z,99118.03
2022-09-27T17:54:10.692Z,99141.31
2022-09-27T17:56:37.810Z,99137.66
2022-09-27T17:59:05.378Z,99123.94
2022-09-27T18:01:32.453Z,99138.09
2022-09-27T18:04:00.757Z,99125.66
2022-09-27T18:06:28.776Z,99122.53
2022-09-27T18:08:56.449Z,99091.81
2022-09-27T18:11:25.749Z,99124.69
2022-09-27T18:13:52.367Z,99104.06
2022-09-27T18:16:19.356Z,99108.53
2022-09-27T18:18:48.262Z,99097.22
2022-09-27T18:21:16.591Z,99111.78
2022-09-27T18:23:44.707Z,99114.25
2022-09-27T18:26:11.688Z,99096.81
2022-09-27T18:28:40.494Z,99120.25
2022-09-27T18:31:09.760Z,99112.09
2022-09-27T18:33:37.104Z,99097.94
2022-09-27T18:36:05.514Z,99108.38
2022-09-27T18:38:32.484Z,99102.91
2022-09-27T18:41:06.603Z,99133.53
2022-09-27T18:43:38.602Z,99145.81
2022-09-27T18:46:30.969Z,99154.03
2022-09-27T18:48:53.636Z,99144.78
2022-09-27T18:51:22.378Z,99160.69
2022-09-27T18:53:48.955Z,99173.38
2022-09-27T18:56:17.324Z,99176.69
2022-09-27T18:58:45.187Z,99155.13
2022-09-27T19:01:13.863Z,99164.47
2022-09-27T19:03:40.794Z,99185.22
2022-09-27T19:06:11.999Z,99188.28
2022-09-27T19:08:38.667Z,99190.09
2022-09-27T19:11:06.098Z,99181.88
2022-09-27T19:13:43.734Z,99177.75
2022-09-27T19:16:15.328Z,99181.09
2022-09-27T19:18:42.069Z,99169.06
2022-09-27T19:21:11.845Z,99177.31
2022-09-27T19:23:39.175Z,99191.81
2022-09-27T19:26:07.528Z,99188.75
2022-09-27T19:28:37.651Z,99183.91
2022-09-27T19:31:05.671Z,99207.91
2022-09-27T19:33:32.805Z,99213.00
2022-09-27T19:36:00.594Z,99223.88
2022-09-27T19:38:29.461Z,99230.22
2022-09-27T19:40:56.238Z,99215.69
2022-09-27T19:43:23.035Z,99218.28
2022-09-27T19:45:50.943Z,99221.09
2022-09-27T19:48:17.558Z,99209.44
2022-09-27T19:50:44.124Z,99232.97
2022-09-27T19:53:10.669Z,99239.03
2022-09-27T19:55:37.249Z,99233.56
2022-09-27T19:58:03.815Z,99227.50
2022-09-27T20:00:30.396Z,99224.28
2022-09-27T20:02:58.410Z,99226.47
2022-09-27T20:05:25.039Z,99241.34
2022-09-27T20:07:51.565Z,99255.53
2022-09-27T20:10:18.143Z,99272.16
2022-09-27T20:12:44.663Z,99278.09
2022-09-27T20:15:11.237Z,99268.25
2022-09-27T20:17:37.810Z,99279.03
2022-09-27T20:20:07.125Z,99289.38
2022-09-27T20:22:34.768Z,99289.56
2022-09-27T20:25:01.371Z,99283.38
2022-09-27T20:27:27.894Z,99278.38
2022-09-27T20:29:54.421Z,99262.56
2022-09-27T20:32:27.653Z,99278.75
2022-09-27T20:34:54.829Z,99279.38
2022-09-27T20:37:22.829Z,99268.38
2022-09-27T20:39:49.400Z,99280.28
2022-09-27T20:42:15.940Z,99265.63
2022-09-27T20:44:42.578Z,99267.06
2022-09-27T20:47:09.121Z,99296.84
2022-09-27T20:49:35.676Z,99285.94
2022-09-27T20:52:02.332Z,99288.84
2022-09-27T20:54:30.270Z,99288.13
2022-09-27T20:56:56.828Z,99300.56
2022-09-27T20:59:23.616Z,99307.91
2022-09-27T21:01:51.896Z,99315.78
2022-09-27T21:04:19.944Z,99312.88
2022-09-27T21:06:46.793Z,99313.03
2022-09-27T21:09:14.280Z,99308.63
2022-09-27T21:11:43.516Z,99306.03
2022-09-27T21:14:10.313Z,99305.59
2022-09-27T21:16:37.006Z,99292.88
2022-09-27T21:19:03.650Z,99282.25
2022-09-27T21:21:30.674Z,99287.66
2022-09-27T21:23:59.170Z,99292.97
2022-09-27T21:26:34.274Z,99285.19
2022-09-27T21:29:07.717Z,99280.19
2022-09-27T21:31:35.037Z,99277.19
2022-09-27T21:34:03.142Z,99279.03
2022-09-27T21:36:31.570Z,99251.28
2022-09-27T21:38:58.476Z,99274.41
2022-09-27T21:41:25.655Z,99281.66
2022-09-27T21:43:52.294Z,99265.91
2022-09-27T21:46:22.639Z,99277.09
2022-09-27T21:48:51.123Z,99269.34
2022-09-27T21:51:19.591Z,99251.47
2022-09-27T21:53:49.943Z,99230.06
2022-09-27T21:56:16.579Z,99236.47
2022-09-27T21:58:43.126Z,99233.47
2022-09-27T22:01:11.438Z,99234.44
2022-09-27T22:03:40.640Z,99243.53
2022-09-27T22:06:09.509Z,99259.72
2022-09-27T22:08:36.963Z,99254.56
2022-09-27T22:11:04.454Z,99248.84
2022-09-27T22:13:32.108Z,99255.59
2022-09-27T22:16:02.802Z,99261.72
2022-09-27T22:18:29.410Z,99259.84
2022-09-27T22:21:02.394Z,99253.97
2022-09-27T22:23:28.964Z,99266.19
2022-09-27T22:25:55.598Z,99260.19
2022-09-27T22:28:22.188Z,99254.44
2022-09-27T22:30:48.723Z,99261.19
2022-09-27T22:33:15.370Z,99254.16
2022-09-27T22:35:45.903Z,99251.13
2022-09-27T22:38:13.951Z,99223.81
2022-09-27T22:40:40.791Z,99237.81
2022-09-27T22:43:07.562Z,99232.75
2022-09-27T22:45:34.155Z,99248.84
2022-09-27T22:48:01.235Z,99250.88
2022-09-27T22:50:27.823Z,99246.13
2022-09-27T22:52:54.477Z,99238.09
2022-09-27T22:55:22.401Z,99238.25
2022-09-27T22:57:48.958Z,99219.03
2022-09-27T23:00:15.731Z,99206.75
2022-09-27T23:02:42.315Z,99195.75
2022-09-27T23:05:09.306Z,99207.81
2022-09-27T23:07:35.883Z,99232.75
2022-09-27T23:10:02.464Z,99247.84
2022-09-27T23:12:30.719Z,99287.19
2022-09-27T23:14:57.276Z,99284.44
2022-09-27T23:17:23.830Z,99276.34
2022-09-27T23:19:50.504Z,99261.19
2022-09-27T23:22:17.121Z,99258.03
2022-09-27T23:24:43.739Z,99275.94
2022-09-27T23:27:10.413Z,99266.19
2022-09-27T23:29:38.452Z,99270.19
2022-09-27T23:32:05.388Z,99273.09
2022-09-27T23:34:32.215Z,99260.19
2022-09-27T23:36:58.966Z,99268.19
2022-09-27T23:39:25.593Z,99255.28
2022-09-27T23:41:52.252Z,99248.28
2022-09-27T23:44:18.847Z,99248.41
2022-09-27T23:46:46.849Z,99232.78
2022-09-27T23:49:13.569Z,99241.69
2022-09-27T23:51:40.380Z,99248.56
2022-09-27T23:54:07.066Z,99248.72
2022-09-27T23:56:33.681Z,99248.13
2022-09-27T23:59:00.311Z,99238.22
